Depesze METAR z lotnisk oddalonych od Rybnika do 200 kilometrów

LKMT - Ostrava/Mosnov, Czech Republic
Distance from station: SSW 55km
Updated: Fri, 20/04/2018 00:30 CEST
Partly Cloudy
Partly Cloudy
 Wind from calm
Wind: Calm
Temperature: 13°C
Dew Point: 10°C
Humidity: 82%
Barometer: 1028 hPa
Clouds: Partly Cloudy
Visibility: 10 km
Cloud details: Partly Cloudy 1494 m
2018/04/19 22:30 LKMT 192230Z 00000KT 9999 SCT049 13/10 Q1028 NOSIG
EPKT - Katowice/Pyrzowi, Poland
Distance from station: NE 58km
Updated: Fri, 20/04/2018 00:30 CEST
Clear
Clear
 Wind from NNW
Wind: NNW 6 km/h
Temperature: 9°C
Dew Point: 7°C
Humidity: 87%
Barometer: 1028 hPa
Summary: Clear
Visibility: greater than 10 km
2018/04/19 22:30 EPKT 192230Z 34003KT CAVOK 09/07 Q1028
 
EPKK - Krakow/Balice, Poland
Distance from station: E 91km
Updated: Fri, 20/04/2018 00:30 CEST
Clear
Clear
 Wind from N
Wind: N 11 km/h
Temperature: 14°C
Dew Point: 7°C
Humidity: 63%
Barometer: 1028 hPa
Summary: Clear
Visibility: greater than 10 km
2018/04/19 22:30 EPKK 192230Z 35006KT CAVOK 14/07 Q1028
LZZI - Zilina, Slovakia
Distance from station: S 95km
Updated: Fri, 20/04/2018 00:30 CEST
Clear
Clear
 Wind from varies
Wind: varies 4 km/h
Temperature: 11°C
Dew Point: 8°C
Humidity: 82%
Barometer: 1027 hPa
Summary: Clear
Visibility: greater than 10 km
2018/04/19 22:30 LZZI 192230Z VRB02KT CAVOK 11/08 Q1027
 
LKKU - Kunovice, Czech Republic
Distance from station: SW 139km
Updated: Thu, 19/04/2018 16:00 CEST
NOT Current
Clear
Clear
 Wind from N
Wind: N 17 km/h
Temperature: 24°C
Dew Point: 10°C
Humidity: 41%
Barometer: 1027 hPa
Summary: Clear
Visibility: greater than 10 km
2018/04/19 14:00 LKKU 191400Z 36009KT CAVOK 24/10 Q1027
EPWR - Wroclaw/Strachow, Poland
Distance from station: NW 163km
Updated: Fri, 20/04/2018 00:30 CEST
Clear
Clear
 Wind from varies
Wind: varies 2 km/h
Temperature: 12°C
Dew Point: 10°C
Humidity: 88%
Barometer: 1029 hPa
Summary: Clear
Visibility: greater than 10 km
2018/04/19 22:30 EPWR 192230Z VRB01KT CAVOK 12/10 Q1029
 
LZSL - Sliac, Slovakia
Distance from station: SSE 168km
Updated: Fri, 20/04/2018 00:30 CEST
Clear
Clear
 Wind from NNE
Wind: NNE 22 km/h
Temperature: 19°C
Dew Point: 6°C
Humidity: 43%
Barometer: 1026 hPa
Summary: Clear
Visibility: greater than 10 km
2018/04/19 22:30 LZSL 192230Z 03012KT 350V070 CAVOK 19/06 Q1026
LZTT - Poprad/Tatry, Slovakia
Distance from station: SE 168km
Updated: Fri, 20/04/2018 00:30 CEST
Few Clouds
Few Clouds
 Wind from N
Wind: N 13 km/h
Temperature: 13°C
Dew Point: 3°C
Humidity: 51%
Barometer: 1026 hPa
Clouds: Few Clouds
Visibility: 10 km
Cloud details: Few Clouds 1829 m
2018/04/19 22:30 LZTT 192230Z 36007KT 330V050 9999 FEW060 13/03 Q1026
 
LKTB - Brno/Turany, Czech Republic
Distance from station: SW 170km
Updated: Fri, 20/04/2018 00:30 CEST
Clear
Clear
 Wind from NNW
Wind: NNW 9 km/h
Temperature: 17°C
Dew Point: 9°C
Humidity: 59%
Barometer: 1028 hPa
Summary: Clear
Visibility: greater than 10 km
2018/04/19 22:30 LKTB 192230Z 34005KT CAVOK 17/09 Q1028 NOSIG
LZPP - Piestany, Slovakia
Distance from station: SSW 171km
Updated: Fri, 20/04/2018 00:30 CEST
Clear
Clear
 Wind from NE
Wind: NE 11 km/h
Temperature: 15°C
Dew Point: 10°C
Humidity: 72%
Barometer: 1026 hPa
Clouds: Clear
Visibility: 10 km
2018/04/19 22:30 LZPP 192230Z AUTO 04006KT 9999 NCD 15/10 Q1026
 
EPLL - Lodz/Lublinek, Poland
Distance from station: NNE 191km
Updated: Fri, 20/04/2018 00:30 CEST
Clear
Clear
 Wind from NNE
Wind: NNE 11 km/h
Temperature: 13°C
Dew Point: 4°C
Humidity: 55%
Barometer: 1029 hPa
Summary: Clear
Visibility: greater than 10 km
2018/04/19 22:30 EPLL 192230Z 03006KT CAVOK 13/04 Q1029
LKPD - Pardubice, Czech Republic
Distance from station: W 200km
Updated: Fri, 20/04/2018 00:00 CEST
Clear
Clear
 Wind from S
Wind: S 7 km/h
Temperature: 11°C
Dew Point: 8°C
Humidity: 82%
Barometer: 1028 hPa
Summary: Clear
Visibility: greater than 10 km
2018/04/19 22:00 LKPD 192200Z 19004KT CAVOK 11/08 Q1028 RMK BLU

Metar display script from Saratoga-Weather.org